createdAt,value
2023-03-20T00:00:54.787Z,26.40
2023-03-20T00:06:00.036Z,27.13
2023-03-20T00:11:06.272Z,26.88
2023-03-20T00:16:13.098Z,26.42
2023-03-20T00:21:19.433Z,27.05
2023-03-20T00:26:26.613Z,25.17
2023-03-20T00:31:33.286Z,28.98
2023-03-20T00:36:37.033Z,26.73
2023-03-20T00:41:44.980Z,24.33
2023-03-20T00:46:52.269Z,24.13
2023-03-20T00:51:56.166Z,22.55
2023-03-20T00:57:02.243Z,22.27
2023-03-20T01:02:07.489Z,21.52
2023-03-20T01:07:16.400Z,20.58
2023-03-20T01:12:20.066Z,19.02
2023-03-20T01:17:27.166Z,19.52
2023-03-20T01:22:30.720Z,20.27
2023-03-20T01:27:34.141Z,21.30
2023-03-20T01:32:38.905Z,21.65
2023-03-20T01:37:42.837Z,23.10
2023-03-20T01:42:46.225Z,20.35
2023-03-20T01:47:51.360Z,20.33
2023-03-20T01:53:09.845Z,22.60
2023-03-20T01:58:18.138Z,20.90
2023-03-20T02:03:24.290Z,20.58
2023-03-20T02:08:30.776Z,18.17
2023-03-20T02:13:35.697Z,17.60
2023-03-20T02:18:42.660Z,18.23
2023-03-20T02:24:23.838Z,19.58
2023-03-20T02:30:15.447Z,18.05
2023-03-20T02:36:01.916Z,17.83
2023-03-20T02:41:15.154Z,17.77
2023-03-20T02:51:36.443Z,16.00
2023-03-20T02:56:53.070Z,17.73
2023-03-20T03:02:03.507Z,17.38
2023-03-20T03:07:10.862Z,16.02
2023-03-20T03:12:21.374Z,16.17
2023-03-20T03:17:27.896Z,15.20
2023-03-20T03:22:31.926Z,15.00
2023-03-20T03:27:39.397Z,14.40
2023-03-20T03:32:47.512Z,14.25
2023-03-20T03:38:00.095Z,14.18
2023-03-20T03:43:14.133Z,14.20
2023-03-20T03:48:20.510Z,14.63
2023-03-20T03:53:28.787Z,14.82
2023-03-20T03:58:38.952Z,14.85
2023-03-20T04:03:47.624Z,13.95
2023-03-20T04:08:51.865Z,14.10
2023-03-20T04:13:57.367Z,16.02
2023-03-20T04:19:00.810Z,15.25
2023-03-20T04:24:04.342Z,16.05
2023-03-20T04:29:09.204Z,14.45
2023-03-20T04:34:12.874Z,13.95
2023-03-20T04:39:16.592Z,11.50
2023-03-20T04:44:21.793Z,11.07
2023-03-20T04:49:25.215Z,11.00
2023-03-20T04:54:28.762Z,10.38
2023-03-20T04:59:34.009Z,10.13
2023-03-20T05:04:37.502Z,10.73
2023-03-20T05:09:41.189Z,10.27
2023-03-20T05:14:45.948Z,9.48
2023-03-20T05:19:49.910Z,10.65
2023-03-20T05:24:53.657Z,10.13
2023-03-20T05:29:58.391Z,10.60
2023-03-20T05:35:02.032Z,10.20
2023-03-20T05:40:07.070Z,10.23
2023-03-20T05:45:12.663Z,11.18
2023-03-20T05:50:16.972Z,10.82
2023-03-20T05:55:20.349Z,11.48
2023-03-20T06:00:26.315Z,11.93
2023-03-20T06:05:29.757Z,12.23
2023-03-20T06:10:33.571Z,12.00
2023-03-20T06:15:39.019Z,11.75
2023-03-20T06:20:42.567Z,11.80
2023-03-20T06:25:46.191Z,11.82
2023-03-20T06:30:54.494Z,12.23
2023-03-20T06:35:58.027Z,11.90
2023-03-20T06:41:01.531Z,12.32
2023-03-20T06:46:07.426Z,12.15
2023-03-20T06:51:10.984Z,12.35
2023-03-20T06:56:14.394Z,12.25
2023-03-20T07:01:20.772Z,12.05
2023-03-20T07:06:24.298Z,13.27
2023-03-20T07:11:28.557Z,14.07
2023-03-20T07:16:33.662Z,12.32
2023-03-20T07:21:37.182Z,11.80
2023-03-20T07:26:41.277Z,12.02
2023-03-20T07:31:46.399Z,12.85
2023-03-20T07:36:49.867Z,11.73
2023-03-20T07:41:54.992Z,12.40
2023-03-20T07:47:00.452Z,12.68
2023-03-20T07:52:04.037Z,11.90
2023-03-20T07:57:08.570Z,14.25
2023-03-20T08:02:16.439Z,13.63
2023-03-20T08:07:19.987Z,17.33
2023-03-20T08:12:23.694Z,15.57
2023-03-20T08:17:28.806Z,17.63
2023-03-20T08:22:32.564Z,18.20
2023-03-20T08:27:36.728Z,18.20
2023-03-20T08:32:42.345Z,18.95
2023-03-20T08:37:46.569Z,17.67
2023-03-20T08:42:50.408Z,18.33
2023-03-20T08:47:56.732Z,17.05
2023-03-20T08:53:01.210Z,18.85
2023-03-20T08:58:04.723Z,17.48
2023-03-20T09:03:14.866Z,18.35
2023-03-20T09:08:18.612Z,15.13
2023-03-20T09:13:27.673Z,14.93
2023-03-20T09:18:33.126Z,16.42
2023-03-20T09:23:37.144Z,15.63
2023-03-20T09:28:40.530Z,15.23
2023-03-20T09:33:45.484Z,15.98
2023-03-20T09:38:48.889Z,14.82
2023-03-20T09:44:06.872Z,14.43
2023-03-20T09:49:20.174Z,13.88
2023-03-20T09:54:28.192Z,11.70
2023-03-20T09:59:35.572Z,12.68
2023-03-20T10:04:41.486Z,14.25
2023-03-20T10:09:46.123Z,11.82
2023-03-20T10:14:58.185Z,12.15
2023-03-20T10:20:11.301Z,10.55
2023-03-20T10:25:25.829Z,11.02
2023-03-20T10:30:49.698Z,11.60
2023-03-20T10:36:06.181Z,11.68
2023-03-20T10:41:15.315Z,11.23
2023-03-20T10:46:22.979Z,10.00
2023-03-20T10:51:37.952Z,11.07
2023-03-20T10:56:46.465Z,12.75
2023-03-20T11:01:49.951Z,11.25
2023-03-20T11:07:03.342Z,11.82
2023-03-20T11:12:06.904Z,12.52
2023-03-20T11:17:13.193Z,11.60
2023-03-20T11:22:27.025Z,12.95
2023-03-20T11:27:33.003Z,9.55
2023-03-20T11:32:40.734Z,10.02
2023-03-20T11:37:47.886Z,9.07
2023-03-20T11:42:55.093Z,7.82
2023-03-20T11:47:58.971Z,7.57
2023-03-20T11:53:04.876Z,7.95
2023-03-20T11:58:16.612Z,8.93
2023-03-20T12:03:42.156Z,8.98
2023-03-20T12:08:53.135Z,9.90
2023-03-20T12:14:00.928Z,9.35
2023-03-20T12:19:10.743Z,8.77
2023-03-20T12:24:22.777Z,9.55
2023-03-20T12:29:33.092Z,9.57
2023-03-20T12:34:42.581Z,10.05
2023-03-20T12:39:53.271Z,11.13
2023-03-20T12:45:00.965Z,11.77
2023-03-20T12:50:12.612Z,12.50
2023-03-20T12:55:33.631Z,11.23
2023-03-20T13:00:42.566Z,10.07
2023-03-20T13:05:51.686Z,10.80
2023-03-20T13:11:05.017Z,10.00
2023-03-20T13:16:18.713Z,9.65
2023-03-20T13:21:29.676Z,10.52
2023-03-20T13:26:42.754Z,11.10
2023-03-20T13:31:55.306Z,11.57
2023-03-20T13:37:22.735Z,8.23
2023-03-20T13:42:33.967Z,2.20
2023-03-20T13:47:39.028Z,2.00
2023-03-20T13:52:48.413Z,1.50
2023-03-20T13:58:07.968Z,1.83
2023-03-20T14:03:28.457Z,2.75
2023-03-20T14:08:37.032Z,3.25
2023-03-20T14:13:47.521Z,3.08
2023-03-20T14:19:05.064Z,3.17
2023-03-20T14:24:14.453Z,3.97
2023-03-20T14:29:33.802Z,4.53
2023-03-20T14:34:47.525Z,5.22
2023-03-20T14:39:54.530Z,7.07
2023-03-20T14:45:26.128Z,5.78
2023-03-20T14:50:33.451Z,2.58
2023-03-20T14:55:52.159Z,6.18
2023-03-20T15:01:02.157Z,5.68
2023-03-20T15:06:08.623Z,4.57
2023-03-20T15:11:15.366Z,2.22
2023-03-20T15:16:28.420Z,2.30
2023-03-20T15:21:37.413Z,1.77
2023-03-20T15:26:41.227Z,2.72
2023-03-20T15:31:47.492Z,2.17
2023-03-20T15:36:52.996Z,3.00
2023-03-20T15:41:59.152Z,3.00
2023-03-20T15:47:12.401Z,3.17
2023-03-20T15:52:33.114Z,2.20
2023-03-20T15:57:39.521Z,2.72
2023-03-20T16:02:48.390Z,2.53
2023-03-20T16:07:52.476Z,2.65
2023-03-20T16:12:58.138Z,2.42
2023-03-20T16:18:07.118Z,4.78
2023-03-20T16:23:14.660Z,2.83
2023-03-20T16:28:18.370Z,2.92
2023-03-20T16:33:23.774Z,3.33
2023-03-20T16:38:29.698Z,3.13
2023-03-20T16:43:33.530Z,3.15
2023-03-20T16:48:39.275Z,3.40
2023-03-20T16:53:46.280Z,3.35
2023-03-20T16:58:50.260Z,3.70
2023-03-20T17:03:57.383Z,3.88
2023-03-20T17:09:03.661Z,4.32
2023-03-20T17:14:07.350Z,4.70
2023-03-20T17:19:17.689Z,4.90
2023-03-20T17:24:21.206Z,4.43
2023-03-20T17:29:24.749Z,4.32
2023-03-20T17:34:29.609Z,4.55
2023-03-20T17:39:33.072Z,4.55
2023-03-20T17:44:36.872Z,8.00
2023-03-20T17:49:41.907Z,5.85
2023-03-20T17:54:45.817Z,5.65
2023-03-20T17:59:50.160Z,6.13
2023-03-20T18:04:55.401Z,5.40
2023-03-20T18:09:58.832Z,6.50
2023-03-20T18:15:02.448Z,5.85
2023-03-20T18:20:13.080Z,6.70
2023-03-20T18:25:16.979Z,5.88
2023-03-20T18:30:22.880Z,6.78
2023-03-20T18:35:27.822Z,7.03
2023-03-20T18:40:33.940Z,6.38
2023-03-20T18:45:38.820Z,6.88
2023-03-20T18:50:44.031Z,8.65
2023-03-20T18:55:47.767Z,7.18
2023-03-20T19:00:53.602Z,7.50
2023-03-20T19:05:59.751Z,8.50
2023-03-20T19:11:03.711Z,8.80
2023-03-20T19:16:20.599Z,8.88
2023-03-20T19:21:26.646Z,9.88
2023-03-20T19:26:31.472Z,7.70
2023-03-20T19:31:34.971Z,8.68
2023-03-20T19:36:40.200Z,7.35
2023-03-20T19:41:44.003Z,7.30
2023-03-20T19:46:47.401Z,7.72
2023-03-20T19:51:52.229Z,8.30
2023-03-20T19:56:55.656Z,8.65
2023-03-20T20:01:59.147Z,9.02
2023-03-20T20:07:41.190Z,9.65
2023-03-20T20:12:28.247Z,11.85
2023-03-20T20:17:31.982Z,10.77
2023-03-20T20:22:37.331Z,12.73
2023-03-20T20:27:41.217Z,11.65
2023-03-20T20:32:44.853Z,11.85
2023-03-20T20:43:32.413Z,12.80
2023-03-20T20:48:37.657Z,13.98
2023-03-20T20:53:42.519Z,16.23
2023-03-20T20:58:46.244Z,14.02
2023-03-20T21:03:49.668Z,14.23
2023-03-20T21:08:54.486Z,14.80
2023-03-20T21:13:57.997Z,15.93
2023-03-20T21:19:01.477Z,15.27
2023-03-20T21:24:30.407Z,16.20
2023-03-20T21:29:35.143Z,14.50
2023-03-20T21:34:39.067Z,15.48
2023-03-20T21:39:44.118Z,15.32
2023-03-20T21:45:44.089Z,16.23
2023-03-20T22:01:45.894Z,16.30
2023-03-20T22:12:28.239Z,15.55
2023-03-20T22:23:26.305Z,13.55
2023-03-20T22:34:25.815Z,13.27
2023-03-20T22:49:38.398Z,13.38
2023-03-20T22:54:41.859Z,17.25
2023-03-20T22:59:46.578Z,16.80
2023-03-20T23:04:52.510Z,18.20
2023-03-20T23:09:55.950Z,19.50
2023-03-20T23:15:00.744Z,20.13
2023-03-20T23:20:12.630Z,21.02
2023-03-20T23:25:27.514Z,17.97
2023-03-20T23:30:48.221Z,18.42
2023-03-20T23:36:11.154Z,18.67
2023-03-20T23:41:20.162Z,19.45
2023-03-20T23:46:24.942Z,19.05
2023-03-20T23:51:28.344Z,20.25
2023-03-20T23:56:31.750Z,21.55
